createdAt,value
2018-07-31T00:00:22.567Z,54.78
2018-07-31T00:02:51.635Z,54.66
2018-07-31T00:05:21.141Z,54.24
2018-07-31T00:07:49.607Z,54.58
2018-07-31T00:10:17.939Z,54.48
2018-07-31T00:12:46.315Z,55.34
2018-07-31T00:15:14.763Z,54.93
2018-07-31T00:17:43.391Z,54.53
2018-07-31T00:20:11.779Z,55.02
2018-07-31T00:22:40.086Z,54.85
2018-07-31T00:25:08.743Z,54.48
2018-07-31T00:27:37.159Z,54.55
2018-07-31T00:30:07.928Z,54.78
2018-07-31T00:32:36.360Z,55.01
2018-07-31T00:35:04.764Z,53.72
2018-07-31T00:37:33.630Z,54.70
2018-07-31T00:40:01.963Z,54.27
2018-07-31T00:42:30.616Z,53.81
2018-07-31T00:44:59.064Z,54.93
2018-07-31T00:47:27.408Z,53.84
2018-07-31T00:49:55.786Z,55.29
2018-07-31T00:52:24.197Z,55.10
2018-07-31T00:54:53.616Z,53.70
2018-07-31T00:57:21.976Z,54.58
2018-07-31T00:59:50.645Z,54.11
2018-07-31T01:02:19.016Z,54.62
2018-07-31T01:04:49.118Z,55.17
2018-07-31T01:07:18.299Z,54.00
2018-07-31T01:09:48.242Z,54.13
2018-07-31T01:12:18.415Z,53.67
2018-07-31T01:14:47.386Z,54.20
2018-07-31T01:17:15.848Z,55.15
2018-07-31T01:19:45.738Z,54.39
2018-07-31T01:22:14.234Z,53.71
2018-07-31T01:24:42.644Z,54.06
2018-07-31T01:27:11.124Z,53.18
2018-07-31T01:29:39.601Z,53.27
2018-07-31T01:32:08.073Z,53.11
2018-07-31T01:34:36.467Z,53.23
2018-07-31T01:37:04.798Z,53.44
2018-07-31T01:39:33.134Z,52.99
2018-07-31T01:42:01.469Z,53.60
2018-07-31T01:44:29.991Z,52.54
2018-07-31T01:46:58.363Z,53.18
2018-07-31T01:49:26.742Z,53.72
2018-07-31T01:51:55.126Z,53.58
2018-07-31T01:54:25.894Z,52.59
2018-07-31T01:56:54.285Z,54.39
2018-07-31T01:59:22.604Z,53.30
2018-07-31T02:01:51.129Z,54.00
2018-07-31T02:04:19.883Z,53.78
2018-07-31T02:06:48.366Z,54.19
2018-07-31T02:09:16.801Z,54.26
2018-07-31T02:11:45.162Z,55.38
2018-07-31T02:14:13.495Z,54.39
2018-07-31T02:16:41.806Z,54.53
2018-07-31T02:19:10.157Z,54.58
2018-07-31T02:21:38.718Z,53.82
2018-07-31T02:24:07.062Z,54.65
2018-07-31T02:26:35.373Z,54.07
2018-07-31T02:29:03.747Z,53.87
2018-07-31T02:31:32.079Z,53.22
2018-07-31T02:34:00.820Z,54.09
2018-07-31T02:36:29.138Z,54.33
2018-07-31T02:38:57.562Z,53.94
2018-07-31T02:41:25.941Z,52.88
2018-07-31T02:43:54.294Z,52.84
2018-07-31T02:46:22.648Z,54.22
2018-07-31T02:48:51.009Z,53.34
2018-07-31T02:51:19.349Z,54.15
2018-07-31T02:53:47.700Z,55.15
2018-07-31T02:56:16.026Z,53.15
2018-07-31T02:58:44.388Z,55.27
2018-07-31T03:01:12.747Z,55.07
2018-07-31T03:03:41.096Z,55.07
2018-07-31T03:06:09.420Z,55.02
2018-07-31T03:08:37.735Z,55.16
2018-07-31T03:11:06.427Z,55.98
2018-07-31T03:13:34.749Z,55.68
2018-07-31T03:16:03.123Z,57.89
2018-07-31T03:18:31.584Z,57.83
2018-07-31T03:20:59.891Z,56.79
2018-07-31T03:23:28.236Z,57.69
2018-07-31T03:25:56.588Z,56.37
2018-07-31T03:28:24.999Z,56.72
2018-07-31T03:30:53.333Z,58.33
2018-07-31T03:33:21.822Z,58.15
2018-07-31T03:35:50.156Z,58.40
2018-07-31T03:38:18.483Z,59.34
2018-07-31T03:40:46.955Z,58.43
2018-07-31T03:43:15.811Z,57.54
2018-07-31T03:45:44.121Z,57.77
2018-07-31T03:48:12.716Z,59.14
2018-07-31T03:50:41.190Z,59.81
2018-07-31T03:53:09.546Z,58.25
2018-07-31T03:55:37.921Z,58.95
2018-07-31T03:58:06.242Z,59.52
2018-07-31T04:00:34.551Z,59.90
2018-07-31T04:03:04.145Z,60.10
2018-07-31T04:05:33.841Z,59.86
2018-07-31T04:08:02.105Z,61.37
2018-07-31T04:10:30.792Z,59.62
2018-07-31T04:12:59.117Z,61.35
2018-07-31T04:15:27.434Z,60.39
2018-07-31T04:17:58.092Z,61.05
2018-07-31T04:20:28.309Z,61.10
2018-07-31T04:22:56.712Z,62.95
2018-07-31T04:25:25.686Z,61.46
2018-07-31T04:27:54.400Z,60.49
2018-07-31T04:30:22.714Z,62.50
2018-07-31T04:32:51.099Z,62.33
2018-07-31T04:35:19.464Z,61.51
2018-07-31T04:37:47.844Z,61.86
2018-07-31T04:40:16.229Z,61.73
2018-07-31T04:42:44.579Z,62.68
2018-07-31T04:45:12.957Z,63.27
2018-07-31T04:47:41.285Z,61.96
2018-07-31T04:50:10.349Z,61.95
2018-07-31T04:52:38.726Z,59.57
2018-07-31T04:55:07.087Z,60.41
2018-07-31T04:57:35.415Z,61.02
2018-07-31T05:00:03.839Z,60.59
2018-07-31T05:02:32.229Z,60.95
2018-07-31T05:05:00.616Z,61.05
2018-07-31T05:07:28.987Z,59.21
2018-07-31T05:09:57.340Z,59.26
2018-07-31T05:12:25.734Z,59.83
2018-07-31T05:14:54.100Z,59.10
2018-07-31T05:17:22.427Z,58.36
2018-07-31T05:19:50.867Z,59.30
2018-07-31T05:22:19.187Z,59.51
2018-07-31T05:24:47.565Z,60.66
2018-07-31T05:27:15.909Z,60.04
2018-07-31T05:29:44.826Z,59.88
2018-07-31T05:32:13.154Z,59.80
2018-07-31T05:34:41.479Z,58.13
2018-07-31T05:37:09.785Z,57.03
2018-07-31T05:39:38.095Z,57.66
2018-07-31T05:42:06.438Z,56.89
2018-07-31T05:44:34.775Z,59.91
2018-07-31T05:47:03.111Z,60.46
2018-07-31T05:49:31.454Z,59.56
2018-07-31T05:51:59.860Z,56.55
2018-07-31T05:54:28.145Z,58.21
2018-07-31T05:56:56.728Z,58.98
2018-07-31T05:59:25.081Z,57.64
2018-07-31T06:01:53.427Z,56.82
2018-07-31T06:04:21.764Z,56.73
2018-07-31T06:06:50.096Z,54.69
2018-07-31T06:09:18.420Z,51.93
2018-07-31T06:11:46.776Z,51.44
2018-07-31T06:14:15.124Z,50.89
2018-07-31T06:16:43.497Z,52.45
2018-07-31T06:19:11.845Z,50.38
2018-07-31T06:21:40.167Z,47.32
2018-07-31T06:24:08.751Z,46.89
2018-07-31T06:26:37.094Z,47.46
2018-07-31T06:29:05.431Z,47.54
2018-07-31T06:31:33.794Z,46.34
2018-07-31T06:34:02.137Z,43.94
2018-07-31T06:36:30.475Z,45.62
2018-07-31T06:38:58.846Z,46.03
2018-07-31T06:41:27.151Z,46.48
2018-07-31T06:43:55.515Z,45.61
2018-07-31T06:46:23.847Z,44.56
2018-07-31T06:48:52.396Z,44.15
2018-07-31T06:51:20.813Z,45.15
2018-07-31T06:53:49.106Z,44.39
2018-07-31T06:56:17.426Z,43.92
2018-07-31T06:58:45.756Z,44.21
2018-07-31T07:01:14.095Z,43.84
2018-07-31T07:03:42.461Z,44.29
2018-07-31T07:06:10.815Z,44.16
2018-07-31T07:08:39.167Z,44.10
2018-07-31T07:11:07.520Z,45.81
2018-07-31T07:13:35.856Z,45.63
2018-07-31T07:16:04.178Z,44.37
2018-07-31T07:18:33.147Z,45.17
2018-07-31T07:21:01.466Z,42.22
2018-07-31T07:23:29.819Z,41.95
2018-07-31T07:25:58.119Z,41.55
2018-07-31T07:28:26.486Z,40.24
2018-07-31T07:30:54.905Z,40.93
2018-07-31T07:33:24.480Z,41.71
2018-07-31T07:35:52.834Z,40.57
2018-07-31T07:38:21.249Z,41.12
2018-07-31T07:40:49.670Z,41.85
2018-07-31T07:43:18.067Z,42.11
2018-07-31T07:45:46.524Z,43.05
2018-07-31T07:48:14.917Z,41.09
2018-07-31T07:50:43.257Z,40.90
2018-07-31T07:53:11.643Z,41.19
2018-07-31T07:55:39.975Z,42.31
2018-07-31T07:58:08.330Z,40.91
2018-07-31T08:00:36.707Z,41.11
2018-07-31T08:03:05.311Z,42.03
2018-07-31T08:05:34.309Z,41.23
2018-07-31T08:08:03.686Z,41.67
2018-07-31T08:10:32.018Z,39.99
2018-07-31T08:13:00.402Z,38.78
2018-07-31T08:15:28.823Z,39.49
2018-07-31T08:17:57.139Z,39.89
2018-07-31T08:20:25.541Z,38.29
2018-07-31T08:22:53.912Z,41.37
2018-07-31T08:25:22.249Z,39.65
2018-07-31T08:27:50.660Z,41.14
2018-07-31T08:30:19.046Z,42.40
2018-07-31T08:32:47.435Z,41.09
2018-07-31T08:35:15.873Z,41.67
2018-07-31T08:37:44.791Z,41.38
2018-07-31T08:40:13.264Z,40.78
2018-07-31T08:42:41.626Z,42.46
2018-07-31T08:45:09.928Z,41.02
2018-07-31T08:47:38.346Z,41.71
2018-07-31T08:50:06.792Z,42.33
2018-07-31T08:52:35.112Z,41.22
2018-07-31T08:55:03.428Z,40.82
2018-07-31T08:57:31.807Z,41.30
2018-07-31T09:00:00.162Z,41.76
2018-07-31T09:02:28.546Z,41.12
2018-07-31T09:04:56.856Z,41.02
2018-07-31T09:07:25.206Z,41.94
2018-07-31T09:09:53.641Z,43.09
2018-07-31T09:12:21.994Z,42.54
2018-07-31T09:14:50.318Z,41.34
2018-07-31T09:17:18.675Z,40.19
2018-07-31T09:19:46.999Z,39.46
2018-07-31T09:22:15.364Z,40.17
2018-07-31T09:24:43.674Z,40.39
2018-07-31T09:27:12.095Z,38.62
2018-07-31T09:29:40.416Z,38.22
2018-07-31T09:32:08.854Z,38.55
2018-07-31T09:34:42.515Z,38.48
2018-07-31T09:37:10.851Z,38.27
2018-07-31T09:39:39.181Z,37.45
2018-07-31T09:42:07.641Z,38.05
2018-07-31T09:44:36.014Z,38.36
2018-07-31T09:47:04.868Z,37.62
2018-07-31T09:49:33.228Z,37.38
2018-07-31T09:52:01.563Z,38.17
2018-07-31T09:54:29.903Z,38.21
2018-07-31T09:56:58.282Z,36.33
2018-07-31T09:59:26.653Z,35.73
2018-07-31T10:01:55.060Z,35.71
2018-07-31T10:04:23.408Z,35.36
2018-07-31T10:06:52.629Z,34.78
2018-07-31T10:09:20.986Z,35.06
2018-07-31T10:11:49.336Z,35.46
2018-07-31T10:14:17.641Z,34.55
2018-07-31T10:16:46.021Z,34.16
2018-07-31T10:19:15.113Z,33.34
2018-07-31T10:21:43.594Z,33.30
2018-07-31T10:24:11.985Z,33.59
2018-07-31T10:26:40.253Z,32.56
2018-07-31T10:29:08.563Z,32.21
2018-07-31T10:31:36.968Z,33.42
2018-07-31T10:34:05.293Z,33.89
2018-07-31T10:36:33.629Z,32.45
2018-07-31T10:39:02.030Z,32.13
2018-07-31T10:41:30.355Z,33.31
2018-07-31T10:43:58.751Z,33.67
2018-07-31T10:46:27.079Z,32.98
2018-07-31T10:48:55.493Z,33.98
2018-07-31T10:51:24.035Z,32.55
2018-07-31T10:53:52.327Z,31.97
2018-07-31T10:56:20.725Z,32.77
2018-07-31T10:58:49.048Z,31.67
2018-07-31T11:01:17.340Z,33.12
2018-07-31T11:03:46.086Z,32.97
2018-07-31T11:06:14.552Z,32.30
2018-07-31T11:08:42.859Z,32.42
2018-07-31T11:11:11.296Z,31.99
2018-07-31T11:13:39.674Z,31.84
2018-07-31T11:16:07.992Z,32.20
2018-07-31T11:18:36.590Z,32.12
2018-07-31T11:21:04.966Z,31.80
2018-07-31T11:23:33.307Z,31.62
2018-07-31T11:26:01.667Z,31.07
2018-07-31T11:28:29.951Z,31.00
2018-07-31T11:30:58.260Z,30.23
2018-07-31T11:33:26.590Z,30.66
2018-07-31T11:35:54.943Z,30.94
2018-07-31T11:38:23.275Z,31.28
2018-07-31T11:40:51.612Z,31.62
2018-07-31T11:43:19.924Z,31.16
2018-07-31T11:45:48.275Z,30.73
2018-07-31T11:48:16.642Z,31.17
2018-07-31T11:50:44.939Z,32.19
2018-07-31T11:53:13.324Z,32.14
2018-07-31T11:55:41.650Z,32.67
2018-07-31T11:58:09.988Z,32.36
2018-07-31T12:00:38.344Z,32.28
2018-07-31T12:03:07.458Z,31.19
2018-07-31T12:05:36.057Z,30.36
2018-07-31T12:08:04.376Z,30.82
2018-07-31T12:10:32.776Z,30.68
2018-07-31T12:13:01.082Z,31.81
2018-07-31T12:15:29.391Z,33.30
2018-07-31T12:17:58.202Z,32.82
2018-07-31T12:20:26.568Z,32.91
2018-07-31T12:22:56.859Z,32.45
2018-07-31T12:25:25.182Z,32.46
2018-07-31T12:27:53.540Z,33.32
2018-07-31T12:30:21.916Z,33.28
2018-07-31T12:32:50.271Z,33.46
2018-07-31T12:35:18.546Z,33.08
2018-07-31T12:37:46.915Z,33.84
2018-07-31T12:40:15.253Z,31.89
2018-07-31T12:42:43.637Z,32.05
2018-07-31T12:45:12.076Z,30.73
2018-07-31T12:47:40.397Z,32.72
2018-07-31T12:50:08.886Z,31.27
2018-07-31T12:52:37.216Z,32.25
2018-07-31T12:55:05.693Z,33.11
2018-07-31T12:57:34.019Z,32.54
2018-07-31T13:00:02.388Z,31.30
2018-07-31T13:02:30.695Z,30.73
2018-07-31T13:04:59.043Z,30.71
2018-07-31T13:07:27.391Z,31.71
2018-07-31T13:09:55.739Z,33.53
2018-07-31T13:12:24.038Z,31.74
2018-07-31T13:14:52.430Z,32.09
2018-07-31T13:17:20.838Z,31.58
2018-07-31T13:19:49.183Z,32.13
2018-07-31T13:22:18.178Z,31.34
2018-07-31T13:24:46.655Z,32.59
2018-07-31T13:27:14.980Z,32.55
2018-07-31T13:29:43.299Z,32.78
2018-07-31T13:32:11.641Z,32.46
2018-07-31T13:34:39.958Z,31.92
2018-07-31T13:37:08.638Z,31.79
2018-07-31T13:39:37.517Z,31.74
2018-07-31T13:42:06.129Z,31.79
2018-07-31T13:44:34.549Z,32.22
2018-07-31T13:47:03.016Z,31.77
2018-07-31T13:49:31.414Z,37.12
2018-07-31T13:51:59.707Z,34.02
2018-07-31T13:54:28.068Z,32.85
2018-07-31T13:56:56.484Z,30.96
2018-07-31T13:59:24.857Z,30.26
2018-07-31T14:01:53.166Z,32.09
2018-07-31T14:04:21.775Z,35.23
2018-07-31T14:06:50.114Z,33.65
2018-07-31T14:09:18.442Z,33.59
2018-07-31T14:11:46.764Z,32.24
2018-07-31T14:14:16.354Z,33.43
2018-07-31T14:16:46.617Z,33.52
2018-07-31T14:19:15.138Z,33.95
2018-07-31T14:21:43.689Z,31.91
2018-07-31T14:24:12.042Z,31.09
2018-07-31T14:26:41.809Z,31.53
2018-07-31T14:29:10.169Z,31.81
2018-07-31T14:31:39.183Z,31.60
2018-07-31T14:34:11.511Z,32.17
2018-07-31T14:36:40.094Z,31.82
2018-07-31T14:39:09.796Z,32.61
2018-07-31T14:41:38.166Z,32.42
2018-07-31T14:44:06.801Z,33.52
2018-07-31T14:46:35.165Z,32.02
2018-07-31T14:49:03.939Z,31.29
2018-07-31T14:51:32.924Z,32.34
2018-07-31T14:54:01.511Z,31.54
2018-07-31T14:56:29.838Z,31.84
2018-07-31T14:58:58.164Z,31.77
2018-07-31T15:01:26.468Z,31.97
2018-07-31T15:03:54.793Z,32.44
2018-07-31T15:06:23.128Z,33.05
2018-07-31T15:08:51.430Z,34.46
2018-07-31T15:11:19.792Z,33.96
2018-07-31T15:13:48.101Z,33.77
2018-07-31T15:16:16.422Z,34.12
2018-07-31T15:18:44.729Z,34.61
2018-07-31T15:21:13.090Z,34.15
2018-07-31T15:23:41.367Z,35.33
2018-07-31T15:26:09.728Z,34.92
2018-07-31T15:28:39.046Z,34.87
2018-07-31T15:31:08.293Z,35.66
2018-07-31T15:33:37.358Z,34.92
2018-07-31T15:36:06.454Z,35.90
2018-07-31T15:38:35.453Z,35.73
2018-07-31T15:41:04.557Z,35.35
2018-07-31T15:43:33.773Z,35.53
2018-07-31T15:46:02.795Z,35.49
2018-07-31T15:48:31.745Z,36.73
2018-07-31T15:51:00.638Z,36.71
2018-07-31T15:53:29.837Z,36.12
2018-07-31T15:55:59.634Z,35.68
2018-07-31T15:58:30.684Z,35.97
2018-07-31T16:00:59.255Z,36.44
2018-07-31T16:03:29.041Z,35.93
2018-07-31T16:05:58.162Z,35.73
2018-07-31T16:08:27.389Z,38.01
2018-07-31T16:10:56.681Z,35.98
2018-07-31T16:13:25.941Z,36.54
2018-07-31T16:15:55.117Z,36.35
2018-07-31T16:18:24.250Z,36.63
2018-07-31T16:20:53.415Z,36.88
2018-07-31T16:23:22.861Z,36.68
2018-07-31T16:25:54.001Z,36.14
2018-07-31T16:28:23.341Z,37.03
2018-07-31T16:30:52.312Z,37.17
2018-07-31T16:33:20.830Z,35.68
2018-07-31T16:35:49.171Z,36.27
2018-07-31T16:38:18.845Z,36.34
2018-07-31T16:40:47.509Z,35.67
2018-07-31T16:43:16.197Z,35.62
2018-07-31T16:45:44.659Z,37.69
2018-07-31T16:48:12.991Z,38.72
2018-07-31T16:50:42.179Z,36.70
2018-07-31T16:53:11.247Z,35.39
2018-07-31T16:55:40.513Z,35.29
2018-07-31T16:58:09.765Z,36.97
2018-07-31T17:00:38.767Z,35.62
2018-07-31T17:03:08.063Z,36.21
2018-07-31T17:05:37.899Z,37.42
2018-07-31T17:08:07.873Z,36.08
2018-07-31T17:10:37.024Z,36.39
2018-07-31T17:13:07.238Z,35.32
2018-07-31T17:15:35.564Z,35.94
2018-07-31T17:18:03.919Z,34.72
2018-07-31T17:20:32.258Z,35.91
2018-07-31T17:23:01.428Z,36.12
2018-07-31T17:25:29.758Z,34.50
2018-07-31T17:27:58.054Z,35.24
2018-07-31T17:30:26.445Z,34.90
2018-07-31T17:32:54.777Z,36.98
2018-07-31T17:35:23.151Z,36.65
2018-07-31T17:37:51.950Z,36.44
2018-07-31T17:40:20.261Z,37.56
2018-07-31T17:42:48.619Z,36.52
2018-07-31T17:45:16.907Z,36.09
2018-07-31T17:47:45.246Z,36.48
2018-07-31T17:50:13.538Z,38.71
2018-07-31T17:52:41.924Z,37.37
2018-07-31T17:55:10.226Z,37.31
2018-07-31T17:57:38.676Z,38.19
2018-07-31T18:00:07.270Z,38.34
2018-07-31T18:02:35.643Z,38.31
2018-07-31T18:05:04.118Z,37.39
2018-07-31T18:07:32.419Z,38.33
2018-07-31T18:10:00.722Z,38.81
2018-07-31T18:12:29.112Z,39.52
2018-07-31T18:14:57.457Z,39.15
2018-07-31T18:17:25.801Z,39.09
2018-07-31T18:19:54.097Z,40.24
2018-07-31T18:22:22.395Z,39.34
2018-07-31T18:24:50.717Z,38.68
2018-07-31T18:27:19.095Z,39.37
2018-07-31T18:29:47.414Z,39.50
2018-07-31T18:32:15.742Z,38.95
2018-07-31T18:34:44.066Z,39.37
2018-07-31T18:37:12.412Z,39.23
2018-07-31T18:39:41.521Z,39.93
2018-07-31T18:42:10.368Z,39.85
2018-07-31T18:44:38.715Z,39.82
2018-07-31T18:47:07.109Z,40.78
2018-07-31T18:49:35.439Z,39.68
2018-07-31T18:52:03.760Z,40.59
2018-07-31T18:54:32.071Z,40.63
2018-07-31T18:57:00.388Z,40.98
2018-07-31T18:59:28.731Z,40.72
2018-07-31T19:01:57.124Z,42.41
2018-07-31T19:04:25.652Z,41.83
2018-07-31T19:06:54.074Z,42.39
2018-07-31T19:09:22.408Z,42.04
2018-07-31T19:11:50.790Z,43.03
2018-07-31T19:14:19.166Z,43.15
2018-07-31T19:16:47.504Z,43.06
2018-07-31T19:19:15.843Z,42.59
2018-07-31T19:21:45.190Z,42.54
2018-07-31T19:24:13.507Z,43.13
2018-07-31T19:26:42.910Z,43.80
2018-07-31T19:29:11.181Z,43.46
2018-07-31T19:31:39.526Z,43.06
2018-07-31T19:34:07.893Z,43.01
2018-07-31T19:36:36.209Z,45.04
2018-07-31T19:39:06.426Z,43.87
2018-07-31T19:41:34.759Z,44.59
2018-07-31T19:44:03.110Z,45.21
2018-07-31T19:46:31.498Z,46.15
2018-07-31T19:48:59.846Z,46.80
2018-07-31T19:51:28.266Z,48.07
2018-07-31T19:53:56.672Z,48.82
2018-07-31T19:56:25.003Z,49.85
2018-07-31T19:58:53.332Z,50.24
2018-07-31T20:01:21.633Z,51.57
2018-07-31T20:03:49.963Z,52.36
2018-07-31T20:06:18.275Z,52.70
2018-07-31T20:08:46.599Z,52.38
2018-07-31T20:11:14.921Z,52.95
2018-07-31T20:13:43.229Z,53.61
2018-07-31T20:16:11.548Z,53.38
2018-07-31T20:18:39.953Z,54.06
2018-07-31T20:21:08.380Z,54.04
2018-07-31T20:23:37.057Z,55.41
2018-07-31T20:26:05.391Z,54.98
2018-07-31T20:28:33.727Z,55.44
2018-07-31T20:31:02.030Z,55.74
2018-07-31T20:33:30.866Z,56.49
2018-07-31T20:35:59.183Z,57.01
2018-07-31T20:38:27.805Z,58.56
2018-07-31T20:40:56.199Z,58.54
2018-07-31T20:43:24.553Z,58.79
2018-07-31T20:45:52.844Z,59.13
2018-07-31T20:48:21.248Z,59.36
2018-07-31T20:50:49.576Z,59.24
2018-07-31T20:53:17.938Z,59.60
2018-07-31T20:55:46.247Z,58.57
2018-07-31T20:58:15.018Z,58.94
2018-07-31T21:00:45.153Z,60.00
2018-07-31T21:03:13.570Z,60.16
2018-07-31T21:05:42.225Z,60.43
2018-07-31T21:08:10.612Z,60.63
2018-07-31T21:10:38.981Z,60.30
2018-07-31T21:13:07.500Z,60.59
2018-07-31T21:15:36.110Z,60.16
2018-07-31T21:18:04.512Z,60.95
2018-07-31T21:20:32.805Z,61.42
2018-07-31T21:23:01.182Z,60.94
2018-07-31T21:25:29.648Z,61.25
2018-07-31T21:27:57.982Z,62.32
2018-07-31T21:30:26.325Z,62.07
2018-07-31T21:32:55.088Z,61.32
2018-07-31T21:35:23.907Z,61.34
2018-07-31T21:37:52.515Z,61.61
2018-07-31T21:40:20.995Z,63.00
2018-07-31T21:42:49.592Z,62.37
2018-07-31T21:45:18.034Z,62.92
2018-07-31T21:47:46.440Z,62.57
2018-07-31T21:50:14.815Z,62.67
2018-07-31T21:52:43.210Z,63.38
2018-07-31T21:55:11.536Z,63.74
2018-07-31T21:57:39.918Z,63.80
2018-07-31T22:00:10.133Z,63.97
2018-07-31T22:02:38.612Z,64.37
2018-07-31T22:05:07.000Z,64.19
2018-07-31T22:07:35.384Z,63.83
2018-07-31T22:10:03.787Z,64.73
2018-07-31T22:12:32.135Z,65.12
2018-07-31T22:15:00.551Z,64.44
2018-07-31T22:17:28.924Z,64.87
2018-07-31T22:19:57.282Z,64.69
2018-07-31T22:22:25.656Z,65.11
2018-07-31T22:24:54.056Z,65.21
2018-07-31T22:27:22.523Z,65.16
2018-07-31T22:29:50.836Z,65.38
2018-07-31T22:32:19.243Z,65.51
2018-07-31T22:34:47.572Z,65.97
2018-07-31T22:37:15.924Z,66.19
2018-07-31T22:39:44.292Z,66.34
2018-07-31T22:42:12.728Z,65.65
2018-07-31T22:44:41.047Z,65.91
2018-07-31T22:47:09.412Z,66.36
2018-07-31T22:49:37.733Z,66.31
2018-07-31T22:52:06.127Z,67.33
2018-07-31T22:54:34.553Z,67.19
2018-07-31T22:57:02.955Z,67.73
2018-07-31T22:59:31.309Z,66.89
2018-07-31T23:01:59.722Z,67.16
2018-07-31T23:04:28.051Z,67.14
2018-07-31T23:06:56.409Z,67.51
2018-07-31T23:09:24.719Z,67.38
2018-07-31T23:11:53.050Z,67.70
2018-07-31T23:14:21.336Z,67.18
2018-07-31T23:16:49.686Z,67.30
2018-07-31T23:19:18.063Z,68.16
2018-07-31T23:21:46.475Z,67.65
2018-07-31T23:24:14.817Z,67.73
2018-07-31T23:26:43.196Z,68.71
2018-07-31T23:29:11.579Z,69.00
2018-07-31T23:31:39.965Z,68.20
2018-07-31T23:34:08.342Z,69.09
2018-07-31T23:36:37.126Z,69.17
2018-07-31T23:39:07.985Z,69.05
2018-07-31T23:41:36.570Z,68.28
2018-07-31T23:44:04.978Z,68.31
2018-07-31T23:46:33.332Z,68.26
2018-07-31T23:49:01.657Z,67.50
2018-07-31T23:51:30.045Z,65.97
2018-07-31T23:53:58.380Z,65.97
2018-07-31T23:56:26.747Z,65.07
2018-07-31T23:58:55.077Z,64.65
